Time;durP1;ratioP1;P1;durP2;ratioP2;P2;SDS_P1;SDS_P2;PMS_P1;PMS_P2;Temp;Humidity;BMP_temperature;BMP_pressure;BME280_temperature;BME280_humidity;BME280_pressure;Samples;Min_cycle;Max_cycle;Signal;HPM_P1;HPM_P2
2023/12/21 00:00:20;;;;;;;3.60;1.70;;;;;;;5.17;70.73;98367.84;5024118;27;102846;-70
2023/12/21 00:02:48;;;;;;;2.30;1.50;;;;;;;5.09;70.71;98376.44;5029220;27;103123;-70
2023/12/21 00:05:16;;;;;;;4.97;1.40;;;;;;;5.07;70.69;98363.47;5023014;27;102653;-70
2023/12/21 00:07:44;;;;;;;2.15;1.45;;;;;;;5.09;71.21;98361.50;5027306;27;102652;-70
2023/12/21 00:10:14;;;;;;;3.55;1.60;;;;;;;5.17;70.93;98366.03;5025104;27;103130;-70
2023/12/21 00:12:42;;;;;;;2.85;1.60;;;;;;;5.15;71.23;98355.69;5011193;27;103198;-71
2023/12/21 00:15:11;;;;;;;3.28;1.27;;;;;;;5.19;71.27;98347.53;5027549;27;102768;-70
2023/12/21 00:17:39;;;;;;;4.05;1.67;;;;;;;5.12;71.56;98340.22;5009322;27;102775;-71
2023/12/21 00:20:09;;;;;;;2.97;1.55;;;;;;;5.15;71.69;98349.63;5015594;27;103144;-70
2023/12/21 00:22:37;;;;;;;2.08;1.40;;;;;;;5.17;71.86;98349.47;5027328;27;103270;-71
2023/12/21 00:25:06;;;;;;;2.42;1.30;;;;;;;5.18;71.65;98343.25;5022842;27;102673;-70
2023/12/21 00:27:36;;;;;;;4.00;1.52;;;;;;;5.12;71.47;98345.47;5010241;27;104293;-71
2023/12/21 00:30:05;;;;;;;2.55;1.40;;;;;;;5.10;71.82;98334.28;5027175;27;103995;-71
2023/12/21 00:32:33;;;;;;;1.85;1.20;;;;;;;5.09;71.86;98330.00;5021909;27;103046;-70
2023/12/21 00:35:01;;;;;;;2.45;1.40;;;;;;;5.17;71.40;98320.59;5011433;27;102609;-70
2023/12/21 00:37:36;;;;;;;2.33;1.20;;;;;;;5.11;71.54;98333.31;5023694;27;103628;-70
2023/12/21 00:40:04;;;;;;;1.52;1.30;;;;;;;5.17;71.90;98337.16;5029161;27;103606;-70
2023/12/21 00:42:33;;;;;;;4.88;1.60;;;;;;;5.15;72.18;98326.81;5028387;27;103216;-70
2023/12/21 00:45:03;;;;;;;1.65;1.20;;;;;;;5.22;71.90;98323.63;5038778;27;102728;-70
2023/12/21 00:47:33;;;;;;;1.50;1.00;;;;;;;5.24;71.81;98329.53;5024946;27;102746;-70
2023/12/21 00:50:02;;;;;;;1.25;1.00;;;;;;;5.20;72.31;98325.56;5013198;27;104092;-71
2023/12/21 00:52:30;;;;;;;1.20;1.10;;;;;;;5.13;72.14;98331.38;5027771;27;103706;-70
2023/12/21 00:54:58;;;;;;;2.38;1.30;;;;;;;5.14;72.29;98322.53;5028396;27;102585;-71
2023/12/21 00:57:30;;;;;;;1.27;1.10;;;;;;;5.15;71.77;98321.56;5030332;27;103656;-70
2023/12/21 01:00:02;;;;;;;1.50;1.20;;;;;;;5.17;71.86;98321.41;5027012;27;103814;-70
2023/12/21 01:02:30;;;;;;;1.63;1.15;;;;;;;5.22;71.47;98323.63;5013067;27;104177;-70
2023/12/21 01:04:58;;;;;;;1.33;1.02;;;;;;;5.19;71.75;98311.59;5014606;27;102957;-70
2023/12/21 01:07:26;;;;;;;1.48;1.20;;;;;;;5.27;71.44;98308.28;5024816;27;103909;-70
2023/12/21 01:09:58;;;;;;;0.82;0.80;;;;;;;5.32;71.37;98308.66;5011192;27;104298;-70
2023/12/21 01:12:31;;;;;;;1.77;1.02;;;;;;;5.24;71.71;98305.91;5027972;27;103265;-70
2023/12/21 01:15:02;;;;;;;0.88;0.88;;;;;;;5.27;71.70;98311.72;5032944;27;103722;-70
2023/12/21 01:17:32;;;;;;;1.13;1.00;;;;;;;5.27;71.71;98295.97;5027365;27;102980;-70
2023/12/21 01:20:00;;;;;;;1.85;1.00;;;;;;;5.31;71.35;98286.00;5027238;27;104402;-70
2023/12/21 01:22:29;;;;;;;0.77;0.77;;;;;;;5.28;71.70;98267.91;5022777;27;103048;-70
2023/12/21 01:24:57;;;;;;;0.80;0.60;;;;;;;5.30;71.25;98264.13;5009473;27;102953;-70
2023/12/21 01:27:25;;;;;;;1.42;0.85;;;;;;;5.34;71.54;98264.69;5006184;27;103915;-71
2023/12/21 01:30:00;;;;;;;1.25;1.00;;;;;;;5.32;71.48;98271.91;5009982;27;104206;-70
2023/12/21 01:32:29;;;;;;;1.00;0.90;;;;;;;5.35;71.55;98274.22;5000688;27;103184;-70
2023/12/21 01:34:57;;;;;;;0.77;0.77;;;;;;;5.36;71.40;98260.13;5028775;27;102598;-70
2023/12/21 01:37:28;;;;;;;0.73;0.73;;;;;;;5.39;71.32;98259.81;5005400;27;102704;-70
2023/12/21 01:39:56;;;;;;;1.05;0.93;;;;;;;5.31;71.43;98254.47;5010080;27;103020;-70
2023/12/21 01:42:25;;;;;;;0.90;0.90;;;;;;;5.36;71.17;98259.28;5010444;27;103916;-70
2023/12/21 01:44:53;;;;;;;0.80;0.80;;;;;;;5.39;71.26;98259.00;5006455;27;102616;-70
2023/12/21 01:47:21;;;;;;;1.05;0.80;;;;;;;5.34;70.88;98259.44;5027044;27;103880;-71
2023/12/21 01:49:51;;;;;;;1.17;1.08;;;;;;;5.42;71.13;98246.41;5031090;27;103210;-70
2023/12/21 01:52:20;;;;;;;0.80;0.80;;;;;;;5.47;70.79;98244.16;5011381;27;103204;-70
2023/12/21 01:54:49;;;;;;;1.33;0.80;;;;;;;5.46;70.65;98236.44;5025730;27;102644;-70
2023/12/21 01:57:18;;;;;;;0.88;0.82;;;;;;;5.40;70.78;98227.34;5024907;27;102800;-70
2023/12/21 01:59:47;;;;;;;2.05;1.00;;;;;;;5.46;70.57;98210.16;5031926;27;103293;-70
2023/12/21 02:02:15;;;;;;;0.80;0.80;;;;;;;5.50;70.56;98194.94;5005359;27;104220;-70
2023/12/21 02:04:46;;;;;;;0.70;0.70;;;;;;;5.52;70.81;98198.25;5030482;27;102534;-71
2023/12/21 02:07:16;;;;;;;0.70;0.70;;;;;;;5.45;70.98;98204.09;5021617;27;102760;-70
2023/12/21 02:09:44;;;;;;;0.75;0.70;;;;;;;5.46;70.81;98202.28;5027404;27;103645;-70
2023/12/21 02:12:12;;;;;;;0.85;0.80;;;;;;;5.50;70.38;98200.19;5029232;27;103336;-70
2023/12/21 02:14:40;;;;;;;0.88;0.70;;;;;;;5.50;70.27;98184.44;5012784;27;102903;-70
2023/12/21 02:17:13;;;;;;;0.85;0.85;;;;;;;5.44;70.28;98189.31;5031241;27;104131;-70
2023/12/21 02:19:41;;;;;;;1.13;0.90;;;;;;;5.50;70.43;98184.44;5027248;27;103307;-70
2023/12/21 02:22:11;;;;;;;1.10;0.88;;;;;;;5.56;70.38;98192.53;5021248;27;103341;-70
2023/12/21 02:24:41;;;;;;;0.93;0.85;;;;;;;5.56;70.04;98186.47;5004940;27;103114;-70
2023/12/21 02:27:09;;;;;;;0.63;0.63;;;;;;;5.53;70.23;98178.88;5005601;27;102873;-70
2023/12/21 02:29:39;;;;;;;0.82;0.77;;;;;;;5.46;70.49;98162.88;5024203;27;103254;-70
2023/12/21 02:32:07;;;;;;;1.17;1.08;;;;;;;5.47;70.44;98160.09;5011557;27;103021;-70
2023/12/21 02:34:35;;;;;;;1.15;0.80;;;;;;;5.54;70.54;98154.25;5026664;27;103493;-70
2023/12/21 02:37:04;;;;;;;0.80;0.80;;;;;;;5.49;70.22;98146.84;5025479;27;102607;-70
2023/12/21 02:39:32;;;;;;;0.77;0.77;;;;;;;5.53;70.33;98152.59;5009774;27;103983;-70
2023/12/21 02:42:01;;;;;;;0.70;0.70;;;;;;;5.53;70.40;98149.97;5005367;27;104251;-70
2023/12/21 02:44:29;;;;;;;0.80;0.80;;;;;;;5.54;69.81;98154.25;5023795;27;102580;-70
2023/12/21 02:46:58;;;;;;;0.80;0.80;;;;;;;5.47;70.59;98135.66;5016381;27;102849;-69
2023/12/21 02:49:26;;;;;;;1.63;1.02;;;;;;;5.57;70.19;98140.84;5027014;27;104286;-70
2023/12/21 02:51:55;;;;;;;0.70;0.70;;;;;;;5.44;70.55;98134.16;5024694;27;103367;-70
2023/12/21 02:54:23;;;;;;;0.60;0.60;;;;;;;5.52;70.56;98119.47;5023841;27;102621;-73
2023/12/21 02:56:51;;;;;;;0.63;0.63;;;;;;;5.57;70.23;98117.22;5027765;27;103724;-70
2023/12/21 02:59:20;;;;;;;0.70;0.70;;;;;;;5.60;70.55;98107.19;5009979;27;104249;-70
2023/12/21 03:01:48;;;;;;;1.02;0.70;;;;;;;5.55;70.25;98098.13;5021485;27;103128;-70
2023/12/21 03:04:17;;;;;;;0.70;0.70;;;;;;;5.63;70.21;98085.06;5027885;27;102696;-70
2023/12/21 03:06:45;;;;;;;0.93;0.80;;;;;;;5.61;70.17;98081.78;5027556;27;102687;-70
2023/12/21 03:09:15;;;;;;;0.70;0.70;;;;;;;5.55;70.24;98085.81;5029292;27;103770;-69
2023/12/21 03:11:43;;;;;;;0.82;0.80;;;;;;;5.61;70.16;98071.25;5009010;27;103311;-70
2023/12/21 03:14:11;;;;;;;0.95;0.88;;;;;;;5.70;70.16;98086.13;5040258;27;102977;-70
2023/12/21 03:16:40;;;;;;;0.55;0.55;;;;;;;5.60;70.01;98080.13;5015577;27;103774;-70
2023/12/21 03:19:08;;;;;;;0.70;0.70;;;;;;;5.68;70.04;98069.66;5009450;27;104677;-70
2023/12/21 03:21:37;;;;;;;1.00;0.95;;;;;;;5.64;70.01;98065.69;5008327;27;103176;-70
2023/12/21 03:24:08;;;;;;;0.77;0.77;;;;;;;5.65;70.77;98062.09;5006158;27;102871;-71
2023/12/21 03:26:37;;;;;;;0.65;0.60;;;;;;;5.68;70.61;98079.34;5023010;27;102718;-70
2023/12/21 03:29:05;;;;;;;0.70;0.70;;;;;;;5.64;71.17;98057.81;5040059;27;104234;-70
2023/12/21 03:31:33;;;;;;;0.70;0.70;;;;;;;5.66;71.16;98071.63;5012268;27;104231;-70
2023/12/21 03:34:03;;;;;;;2.58;0.90;;;;;;;5.66;71.41;98050.63;5044208;27;102825;-71
2023/12/21 03:36:31;;;;;;;0.70;0.70;;;;;;;5.67;71.49;98054.06;5027445;27;103095;-70
2023/12/21 03:38:59;;;;;;;0.55;0.55;;;;;;;5.63;71.21;98057.00;5026274;27;104842;-70
2023/12/21 03:41:28;;;;;;;2.10;0.88;;;;;;;5.60;71.24;98051.22;5028824;27;103235;-70
2023/12/21 03:43:57;;;;;;;0.60;0.60;;;;;;;5.59;71.11;98042.53;5019635;27;102583;-72
2023/12/21 03:46:25;;;;;;;0.75;0.70;;;;;;;5.59;71.35;98047.78;5007062;27;104122;-69
2023/12/21 03:48:53;;;;;;;0.82;0.82;;;;;;;5.64;71.31;98056.00;5001751;27;104507;-68
2023/12/21 03:51:22;;;;;;;0.80;0.80;;;;;;;5.63;71.28;98057.00;5028764;27;103224;-69
2023/12/21 03:53:50;;;;;;;1.05;0.77;;;;;;;5.65;72.22;98056.84;5025730;27;102675;-69
2023/12/21 03:56:18;;;;;;;0.60;0.60;;;;;;;5.68;71.68;98061.78;5025430;27;102827;-70
2023/12/21 03:58:46;;;;;;;0.55;0.55;;;;;;;5.69;72.17;98054.75;5027034;27;103237;-69
2023/12/21 04:01:24;;;;;;;0.68;0.68;;;;;;;5.57;72.65;98059.41;5027158;27;103194;-70
2023/12/21 04:03:52;;;;;;;0.57;0.57;;;;;;;5.65;72.23;98033.19;5023673;27;103108;-70
2023/12/21 04:06:22;;;;;;;0.70;0.70;;;;;;;5.64;72.51;98024.47;5020299;27;104141;-71
2023/12/21 04:08:54;;;;;;;0.70;0.70;;;;;;;5.72;72.14;98041.28;5022852;27;103386;-73
2023/12/21 04:11:22;;;;;;;0.60;0.60;;;;;;;5.63;72.41;98049.13;5009913;27;104207;-72
2023/12/21 04:13:50;;;;;;;0.70;0.70;;;;;;;5.60;72.92;98031.00;5009949;27;102898;-73
2023/12/21 04:16:19;;;;;;;0.60;0.60;;;;;;;5.68;73.10;98024.19;5023652;27;103854;-73
2023/12/21 04:18:47;;;;;;;0.77;0.77;;;;;;;5.59;72.89;98021.50;5026003;27;104229;-73
2023/12/21 04:21:15;;;;;;;0.70;0.70;;;;;;;5.60;73.05;98017.88;5010026;27;104059;-73
2023/12/21 04:23:45;;;;;;;1.25;0.90;;;;;;;5.60;73.32;98019.69;5033949;27;102765;-74
2023/12/21 04:26:18;;;;;;;0.63;0.63;;;;;;;5.61;73.39;98018.72;5029252;27;103894;-72
2023/12/21 04:28:47;;;;;;;0.75;0.75;;;;;;;5.56;73.98;98005.22;5030628;27;103440;-71
2023/12/21 04:31:19;;;;;;;0.73;0.70;;;;;;;5.67;74.11;98007.56;5011839;27;105388;-72
2023/12/21 04:33:50;;;;;;;1.08;0.90;;;;;;;5.63;74.01;98012.34;5007072;27;103358;-73
2023/12/21 04:36:18;;;;;;;0.73;0.70;;;;;;;5.59;74.33;97994.41;5027965;27;102676;-73
2023/12/21 04:38:55;;;;;;;0.77;0.77;;;;;;;5.64;74.18;97994.75;5011513;27;103239;-73
2023/12/21 04:41:26;;;;;;;0.77;0.77;;;;;;;5.53;74.79;97987.13;5029412;27;103180;-73
2023/12/21 04:43:56;;;;;;;0.90;0.85;;;;;;;5.48;74.97;97985.78;5028098;27;102597;-73
2023/12/21 04:46:24;;;;;;;0.70;0.70;;;;;;;5.52;75.27;97994.19;5014698;27;104075;-73
2023/12/21 04:48:52;;;;;;;1.90;0.70;;;;;;;5.51;75.55;97984.66;5030948;27;104377;-72
2023/12/21 04:51:23;;;;;;;1.27;0.90;;;;;;;5.58;75.42;97990.97;5009289;27;104233;-73
2023/12/21 04:53:52;;;;;;;0.65;0.65;;;;;;;5.51;75.40;97987.28;5006005;27;102687;-73
2023/12/21 04:56:20;;;;;;;1.98;0.63;;;;;;;5.55;75.78;97993.06;5029111;27;105502;-72
2023/12/21 04:58:48;;;;;;;0.57;0.50;;;;;;;5.51;75.30;97982.03;5009523;27;104322;-73
2023/12/21 05:01:16;;;;;;;0.63;0.60;;;;;;;5.53;75.15;97968.72;5032431;27;102574;-74
2023/12/21 05:03:44;;;;;;;0.70;0.70;;;;;;;5.61;75.24;97950.41;5037026;27;102899;-73
2023/12/21 05:06:13;;;;;;;0.60;0.60;;;;;;;5.66;74.83;97948.16;5029393;27;103636;-74
2023/12/21 05:08:43;;;;;;;1.23;0.90;;;;;;;5.66;74.85;97942.91;5030009;27;102871;-74
2023/12/21 05:11:13;;;;;;;0.82;0.80;;;;;;;5.66;75.45;97950.78;5028765;27;103232;-74
2023/12/21 05:13:42;;;;;;;1.05;0.77;;;;;;;5.62;75.30;97968.66;5024424;27;103092;-75
2023/12/21 05:16:10;;;;;;;0.85;0.80;;;;;;;5.72;74.88;97963.28;5017489;27;104599;-74
2023/12/21 05:18:38;;;;;;;0.73;0.73;;;;;;;5.69;74.52;97962.78;5009653;27;104235;-74
2023/12/21 05:21:10;;;;;;;0.95;0.80;;;;;;;5.72;75.03;97957.22;5029021;27;103199;-74
2023/12/21 05:23:38;;;;;;;1.20;1.02;;;;;;;5.64;75.27;97950.09;5043680;27;102682;-74
2023/12/21 05:26:11;;;;;;;0.65;0.65;;;;;;;5.72;74.83;97949.31;5047368;27;102679;-74
2023/12/21 05:28:42;;;;;;;0.75;0.75;;;;;;;5.75;74.91;97956.88;5045050;27;104155;-74
2023/12/21 05:31:11;;;;;;;0.70;0.70;;;;;;;5.72;75.00;97942.25;5009932;27;102946;-74
2023/12/21 05:33:42;;;;;;;0.63;0.63;;;;;;;5.73;75.16;97937.84;5033773;27;102715;-74
2023/12/21 05:36:20;;;;;;;0.60;0.60;;;;;;;5.74;74.62;97935.06;5016054;27;104400;-74
2023/12/21 05:38:48;;;;;;;0.95;0.95;;;;;;;5.75;74.69;97920.94;5030004;27;104449;-74
2023/12/21 05:41:17;;;;;;;0.95;0.80;;;;;;;5.76;75.00;97917.31;5015911;27;103402;-73
2023/12/21 05:43:46;;;;;;;0.80;0.80;;;;;;;5.80;74.74;97902.91;5022957;27;102683;-74
2023/12/21 05:46:14;;;;;;;1.02;0.68;;;;;;;5.81;74.84;97914.22;5011150;27;102718;-74
2023/12/21 05:48:43;;;;;;;1.40;0.75;;;;;;;5.78;74.62;97904.84;5010437;27;104455;-73
2023/12/21 05:51:11;;;;;;;1.40;1.05;;;;;;;5.85;74.07;97909.50;5010374;27;103302;-74
2023/12/21 05:53:39;;;;;;;0.60;0.60;;;;;;;5.84;74.57;97913.91;5028612;27;102616;-74
2023/12/21 05:56:10;;;;;;;0.80;0.80;;;;;;;5.86;74.08;97903.25;5010024;27;104040;-74
2023/12/21 05:58:38;;;;;;;0.50;0.50;;;;;;;5.90;74.29;97904.59;5009291;27;105363;-74
2023/12/21 06:01:08;;;;;;;0.63;0.63;;;;;;;5.86;73.97;97900.63;5029034;27;102609;-74
2023/12/21 06:03:37;;;;;;;0.70;0.70;;;;;;;5.88;74.11;97902.13;5031489;27;102645;-74
2023/12/21 06:06:05;;;;;;;0.80;0.80;;;;;;;5.87;74.28;97897.00;5016294;27;104325;-74
2023/12/21 06:08:34;;;;;;;1.13;0.90;;;;;;;5.82;74.62;97890.41;5016888;27;104244;-74
2023/12/21 06:11:02;;;;;;;0.82;0.80;;;;;;;5.90;74.09;97894.88;5013471;27;104081;-73
2023/12/21 06:13:30;;;;;;;0.80;0.80;;;;;;;5.84;74.54;97876.31;5027378;27;102759;-74
2023/12/21 06:15:58;;;;;;;1.48;0.90;;;;;;;5.83;74.28;97883.38;5029148;27;102727;-74
2023/12/21 06:18:27;;;;;;;0.63;0.60;;;;;;;5.90;74.79;97892.25;5013783;27;104217;-74
2023/12/21 06:20:55;;;;;;;0.70;0.70;;;;;;;5.96;74.15;97865.34;5028977;27;103710;-74
2023/12/21 06:23:24;;;;;;;0.60;0.60;;;;;;;5.92;74.48;97864.03;5028936;27;102635;-74
2023/12/21 06:25:52;;;;;;;1.13;1.05;;;;;;;5.90;74.88;97862.53;5013057;27;102620;-74
2023/12/21 06:28:21;;;;;;;0.73;0.70;;;;;;;5.93;74.92;97859.56;5007848;27;104162;-75
2023/12/21 06:30:52;;;;;;;1.52;0.93;;;;;;;5.90;74.72;97844.13;5005103;27;102990;-74
2023/12/21 06:33:20;;;;;;;0.70;0.70;;;;;;;5.91;75.10;97840.53;5027758;27;102661;-74
2023/12/21 06:35:49;;;;;;;2.97;1.05;;;;;;;5.95;74.70;97826.91;5026653;27;104060;-74
2023/12/21 06:38:17;;;;;;;1.20;1.10;;;;;;;5.91;74.96;97814.25;5014417;27;105237;-75
2023/12/21 06:40:45;;;;;;;0.70;0.70;;;;;;;5.98;74.71;97816.09;5029818;27;103610;-74
2023/12/21 06:43:14;;;;;;;1.92;1.30;;;;;;;5.96;74.88;97825.06;5007971;27;102654;-74
2023/12/21 06:45:42;;;;;;;1.33;1.10;;;;;;;5.97;74.87;97816.22;5008758;27;104111;-74
2023/12/21 06:48:10;;;;;;;1.00;1.00;;;;;;;5.99;75.21;97819.56;5010938;27;104418;-74
2023/12/21 06:50:38;;;;;;;0.95;0.90;;;;;;;5.98;74.88;97831.84;5028104;27;103197;-74
2023/12/21 06:53:15;;;;;;;1.10;0.90;;;;;;;6.09;74.20;97822.88;5033368;27;102618;-74
2023/12/21 06:55:43;;;;;;;0.70;0.70;;;;;;;6.03;74.72;97815.63;5030498;27;104067;-74
2023/12/21 06:58:11;;;;;;;1.20;1.02;;;;;;;6.09;74.33;97817.59;5027259;27;104067;-74
2023/12/21 07:00:40;;;;;;;0.60;0.60;;;;;;;6.07;74.61;97818.75;5027149;27;102953;-74
2023/12/21 07:03:08;;;;;;;1.70;1.10;;;;;;;6.10;74.48;97808.72;5009679;27;102820;-74
2023/12/21 07:05:36;;;;;;;1.10;0.93;;;;;;;6.16;74.53;97806.44;5027020;27;104380;-74
2023/12/21 07:08:08;;;;;;;0.98;0.98;;;;;;;6.14;74.32;97807.44;5026408;27;103618;-76
2023/12/21 07:10:37;;;;;;;1.20;0.88;;;;;;;6.19;74.44;97790.34;5015232;27;103915;-74
2023/12/21 07:13:05;;;;;;;0.77;0.77;;;;;;;6.17;74.30;97803.66;5028385;27;102586;-74
2023/12/21 07:15:34;;;;;;;0.95;0.90;;;;;;;6.24;74.26;97807.28;5025960;27;102789;-74
2023/12/21 07:18:03;;;;;;;1.10;0.90;;;;;;;6.18;74.64;97791.31;5026698;27;103737;-74
2023/12/21 07:20:31;;;;;;;1.15;0.90;;;;;;;6.21;74.44;97788.34;5006461;27;104188;-75
2023/12/21 07:23:00;;;;;;;1.70;0.73;;;;;;;6.28;74.03;97778.84;5028424;27;102668;-74
2023/12/21 07:25:30;;;;;;;0.80;0.80;;;;;;;6.28;74.41;97789.38;5021772;27;104334;-74
2023/12/21 07:27:58;;;;;;;0.70;0.70;;;;;;;6.30;74.01;97790.00;5029251;27;104396;-74
2023/12/21 07:30:26;;;;;;;0.70;0.70;;;;;;;6.27;74.28;97790.34;5020200;27;103334;-74
2023/12/21 07:32:56;;;;;;;1.08;0.85;;;;;;;6.36;74.13;97768.31;5026896;27;102589;-74
2023/12/21 07:35:24;;;;;;;1.20;1.10;;;;;;;6.41;74.13;97768.66;5018839;27;103453;-73
2023/12/21 07:37:52;;;;;;;1.35;0.98;;;;;;;6.43;74.24;97766.69;5031098;27;104079;-73
2023/12/21 07:40:23;;;;;;;0.93;0.90;;;;;;;6.41;74.12;97766.03;5030741;27;103252;-72
2023/12/21 07:42:53;;;;;;;2.10;0.93;;;;;;;6.33;74.89;97760.78;5025792;27;102597;-72
2023/12/21 07:45:23;;;;;;;1.00;0.90;;;;;;;6.41;74.49;97757.31;5029073;27;104241;-73
2023/12/21 07:47:51;;;;;;;0.98;0.80;;;;;;;6.38;75.08;97747.13;5025714;27;104144;-74
2023/12/21 07:50:19;;;;;;;0.80;0.80;;;;;;;6.42;74.80;97757.16;5033286;27;103206;-74
2023/12/21 07:52:48;;;;;;;0.77;0.77;;;;;;;6.33;74.95;97755.50;5015383;27;102604;-74
2023/12/21 07:55:19;;;;;;;0.65;0.65;;;;;;;6.39;75.43;97752.22;5032780;27;104175;-74
2023/12/21 07:57:47;;;;;;;1.23;1.13;;;;;;;6.42;75.00;97740.53;5025238;27;104485;-74
2023/12/21 08:00:17;;;;;;;1.45;0.90;;;;;;;6.42;75.59;97738.75;5014570;27;104165;-74
2023/12/21 08:02:45;;;;;;;2.15;1.00;;;;;;;6.37;75.72;97734.97;5036336;27;102816;-74
2023/12/21 08:05:14;;;;;;;0.70;0.70;;;;;;;6.43;75.17;97743.03;5009094;27;103978;-73
2023/12/21 08:07:43;;;;;;;0.82;0.82;;;;;;;6.47;75.25;97752.22;5029534;27;104125;-73
2023/12/21 08:10:20;;;;;;;2.67;1.30;;;;;;;6.49;75.41;97744.16;5030107;27;103336;-73
2023/12/21 08:12:48;;;;;;;0.82;0.75;;;;;;;6.51;75.34;97736.09;5030296;27;102627;-70
2023/12/21 08:15:18;;;;;;;0.77;0.70;;;;;;;6.50;75.53;97739.72;5025401;27;103867;-71
2023/12/21 08:17:51;;;;;;;1.23;0.85;;;;;;;6.59;75.26;97722.94;5022165;27;103905;-70
2023/12/21 08:20:19;;;;;;;2.90;1.20;;;;;;;6.55;74.90;97732.13;5020706;27;103210;-70
2023/12/21 08:22:47;;;;;;;1.77;1.15;;;;;;;6.56;75.18;97733.78;5023575;27;103267;-70
2023/12/21 08:25:15;;;;;;;0.90;0.90;;;;;;;6.67;74.88;97720.31;5010525;27;102827;-70
2023/12/21 08:27:43;;;;;;;1.15;1.05;;;;;;;6.63;74.93;97719.00;5028559;27;103437;-70
2023/12/21 08:30:12;;;;;;;1.10;1.00;;;;;;;6.64;75.10;97715.34;5022953;27;103214;-70
2023/12/21 08:32:41;;;;;;;2.60;0.90;;;;;;;6.66;75.12;97713.38;5025583;27;102743;-69
2023/12/21 08:35:10;;;;;;;1.25;0.70;;;;;;;6.66;75.00;97708.13;5022609;27;103720;-69
2023/12/21 08:37:37;;;;;;;1.17;0.73;;;;;;;6.68;75.12;97721.94;5022391;27;103963;-69
2023/12/21 08:40:07;;;;;;;2.05;0.85;;;;;;;6.77;74.76;97713.03;5020849;27;103192;-69
2023/12/21 08:42:35;;;;;;;0.90;0.82;;;;;;;6.74;74.58;97708.09;5002910;27;103604;-69
2023/12/21 08:45:04;;;;;;;2.40;1.17;;;;;;;6.74;75.06;97718.63;5022277;27;103609;-69
2023/12/21 08:47:40;;;;;;;1.10;1.00;;;;;;;6.71;74.92;97713.72;5008338;27;103606;-70
2023/12/21 08:50:11;;;;;;;1.70;0.90;;;;;;;6.76;74.77;97711.41;5004907;27;103246;-69
2023/12/21 08:52:41;;;;;;;1.27;1.10;;;;;;;6.80;74.79;97704.81;5038558;27;103156;-69
2023/12/21 08:55:10;;;;;;;2.05;1.00;;;;;;;6.81;74.40;97705.63;5008436;27;104418;-69
2023/12/21 08:57:38;;;;;;;1.50;1.05;;;;;;;6.92;74.88;97701.81;5026925;27;105395;-69
2023/12/21 09:00:12;;;;;;;0.90;0.90;;;;;;;6.92;74.54;97717.63;5024661;27;103176;-69
2023/12/21 09:02:41;;;;;;;0.98;0.90;;;;;;;6.96;74.43;97719.72;5022323;27;103752;-69
2023/12/21 09:05:12;;;;;;;4.47;1.00;;;;;;;6.92;74.82;97707.91;5036731;27;103952;-69
2023/12/21 09:07:40;;;;;;;1.33;0.90;;;;;;;6.92;74.50;97676.31;5019087;27;102953;-69
2023/12/21 09:10:09;;;;;;;0.73;0.73;;;;;;;6.95;74.28;97662.00;5032779;27;102974;-70
2023/12/21 09:12:37;;;;;;;1.30;0.93;;;;;;;6.88;74.30;97679.47;5012945;27;102707;-72
2023/12/21 09:15:08;;;;;;;0.70;0.70;;;;;;;6.91;74.87;97676.47;5026815;27;103033;-73
2023/12/21 09:17:38;;;;;;;1.10;0.95;;;;;;;6.96;74.31;97656.56;5043927;27;103711;-70
2023/12/21 09:20:09;;;;;;;0.63;0.63;;;;;;;6.96;74.19;97668.91;5029194;27;103212;-69
2023/12/21 09:22:38;;;;;;;0.70;0.70;;;;;;;7.02;74.23;97647.16;5026570;27;102587;-70
2023/12/21 09:25:07;;;;;;;1.52;0.90;;;;;;;7.05;73.74;97638.91;5031009;27;104157;-71
2023/12/21 09:27:37;;;;;;;0.93;0.77;;;;;;;7.07;73.56;97636.91;5031490;27;104286;-71
2023/12/21 09:30:07;;;;;;;0.63;0.63;;;;;;;7.10;74.66;97619.94;5022708;27;103245;-68
2023/12/21 09:32:39;;;;;;;0.77;0.77;;;;;;;7.17;73.53;97620.09;5021054;27;102708;-69
2023/12/21 09:35:08;;;;;;;0.93;0.85;;;;;;;7.16;73.56;97615.81;5010212;27;104161;-69
2023/12/21 09:37:40;;;;;;;1.55;0.93;;;;;;;7.19;73.40;97634.75;5007408;27;103182;-70
2023/12/21 09:40:12;;;;;;;0.73;0.73;;;;;;;7.21;73.98;97631.94;5031011;27;103182;-70
2023/12/21 09:42:44;;;;;;;1.40;0.95;;;;;;;7.22;73.64;97628.28;5030338;27;102885;-70
2023/12/21 09:45:19;;;;;;;1.35;0.82;;;;;;;7.18;73.20;97616.47;5023959;27;103824;-68
2023/12/21 09:47:48;;;;;;;1.83;0.88;;;;;;;7.20;73.04;97596.06;5026749;27;102960;-68
2023/12/21 09:50:19;;;;;;;1.20;0.93;;;;;;;7.25;72.99;97580.53;5028980;27;103239;-68
2023/12/21 09:52:52;;;;;;;0.88;0.88;;;;;;;7.34;72.90;97590.03;5029773;27;102648;-68
2023/12/21 09:55:21;;;;;;;0.73;0.63;;;;;;;7.38;72.73;97580.78;5023360;27;102530;-68
2023/12/21 09:57:59;;;;;;;1.58;1.10;;;;;;;7.43;72.86;97567.09;5026535;27;104092;-68
2023/12/21 10:00:29;;;;;;;1.30;1.00;;;;;;;7.41;72.88;97559.34;5018964;27;103987;-68
2023/12/21 10:02:57;;;;;;;1.08;0.98;;;;;;;7.39;72.52;97579.78;5021523;27;102565;-67
2023/12/21 10:05:25;;;;;;;0.82;0.82;;;;;;;7.47;72.86;97577.09;5014027;27;104224;-67
2023/12/21 10:07:54;;;;;;;1.00;0.88;;;;;;;7.45;72.41;97594.91;5011784;27;104173;-67
2023/12/21 10:10:23;;;;;;;0.90;0.90;;;;;;;7.54;72.96;97585.13;5028153;27;103206;-69
2023/12/21 10:12:52;;;;;;;0.70;0.70;;;;;;;7.52;72.17;97581.00;5024781;27;103723;-69
2023/12/21 10:15:20;;;;;;;1.75;0.93;;;;;;;7.56;72.52;97562.06;5023423;27;104146;-69
2023/12/21 10:17:48;;;;;;;0.80;0.70;;;;;;;7.57;72.77;97554.97;5029224;27;103305;-69
2023/12/21 10:20:16;;;;;;;0.88;0.80;;;;;;;7.57;71.93;97533.88;5022359;27;104595;-69
2023/12/21 10:22:47;;;;;;;0.80;0.70;;;;;;;7.62;72.53;97519.19;5025275;27;102700;-69
2023/12/21 10:25:17;;;;;;;2.75;0.90;;;;;;;7.67;72.48;97505.47;5022981;27;104286;-66
2023/12/21 10:27:54;;;;;;;0.77;0.73;;;;;;;7.68;72.77;97498.41;5003315;27;104122;-70
2023/12/21 10:30:23;;;;;;;1.00;0.90;;;;;;;7.69;72.42;97500.84;5006733;27;104230;-68
2023/12/21 10:32:52;;;;;;;1.23;0.90;;;;;;;7.74;72.93;97485.31;5026965;27;103066;-68
2023/12/21 10:35:25;;;;;;;0.63;0.63;;;;;;;7.70;72.11;97476.09;5018556;27;102701;-67
2023/12/21 10:37:53;;;;;;;0.63;0.63;;;;;;;7.74;73.14;97469.50;5026592;27;104496;-67
2023/12/21 10:40:24;;;;;;;0.75;0.75;;;;;;;7.84;72.17;97471.06;5020768;27;103202;-67
2023/12/21 10:42:52;;;;;;;1.00;0.90;;;;;;;7.86;72.18;97455.84;5025048;27;102821;-67
2023/12/21 10:45:21;;;;;;;0.90;0.70;;;;;;;7.88;72.36;97436.22;5024823;27;102716;-67
2023/12/21 10:48:07;;;;;;;0.65;0.65;;;;;;;7.89;71.95;97410.69;5007102;27;104128;-67
2023/12/21 10:50:37;;;;;;;2.22;1.00;;;;;;;7.90;72.63;97418.41;5013953;27;104096;-67
2023/12/21 10:53:09;;;;;;;0.80;0.80;;;;;;;7.87;72.51;97410.03;5027888;27;102719;-68
2023/12/21 10:55:41;;;;;;;0.73;0.60;;;;;;;7.95;71.94;97394.13;5020736;27;102588;-67
2023/12/21 10:58:11;;;;;;;0.85;0.63;;;;;;;7.99;71.85;97395.41;5024142;27;103206;-67
2023/12/21 11:00:41;;;;;;;1.00;0.90;;;;;;;7.96;71.69;97399.25;5022218;27;103207;-67
2023/12/21 11:03:12;;;;;;;0.88;0.73;;;;;;;7.97;71.74;97379.75;5005019;27;102931;-68
2023/12/21 11:05:44;;;;;;;;;;;;;;;7.89;71.93;97373.78;5020497;27;102847;-67
2023/12/21 11:08:13;;;;;;;0.70;0.70;;;;;;;7.97;71.91;97378.94;5026542;27;103913;-68
2023/12/21 11:10:44;;;;;;;0.80;0.80;;;;;;;8.05;71.90;97363.03;5031061;27;102929;-68
2023/12/21 11:13:12;;;;;;;1.40;0.68;;;;;;;8.00;71.35;97362.75;5009506;27;102908;-68
2023/12/21 11:15:41;;;;;;;0.68;0.68;;;;;;;7.93;71.78;97356.59;5009197;27;102709;-68
2023/12/21 11:18:16;;;;;;;0.70;0.70;;;;;;;8.10;71.30;97336.91;5025999;27;104451;-67
2023/12/21 11:20:49;;;;;;;0.90;0.90;;;;;;;8.03;71.58;97336.03;5008517;27;105000;-67
2023/12/21 11:23:21;;;;;;;1.00;0.90;;;;;;;8.07;71.78;97316.19;5021926;27;102781;-67
2023/12/21 11:25:57;;;;;;;2.35;1.30;;;;;;;8.23;70.79;97316.97;5019012;27;103003;-68
2023/12/21 11:28:28;;;;;;;0.80;0.80;;;;;;;8.15;71.54;97312.63;5001842;27;104411;-69
2023/12/21 11:30:56;;;;;;;0.77;0.77;;;;;;;8.21;70.73;97305.78;5026190;27;103244;-68
2023/12/21 11:33:29;;;;;;;1.48;0.90;;;;;;;8.21;71.02;97305.78;5007680;27;102841;-68
2023/12/21 11:35:58;;;;;;;0.57;0.57;;;;;;;8.22;70.85;97291.59;5027157;27;102708;-68
2023/12/21 11:38:45;;;;;;;0.47;0.47;;;;;;;8.19;70.48;97289.31;5020024;27;104014;-68
2023/12/21 11:41:26;;;;;;;0.70;0.70;;;;;;;8.28;70.17;97286.38;5025151;27;103222;-68
2023/12/21 11:43:56;;;;;;;0.80;0.80;;;;;;;8.26;70.75;97277.84;5023550;27;103212;-68